Home

PKWA Terminal Aerodrome Forecast (TAF)small logo


TAF provided by NWS Guam
2015/05/28 06:25
TAF PKWA 280520Z 2806/2906 04007KT P6SM VCSH SCT020 SCT045

      



Site Map | Contact Us | Copyright © 2007 Atmospheric Technology Services Company. All rights reserved.